Time;durP1;ratioP1;P1;durP2;ratioP2;P2;SDS_P1;SDS_P2;PMS_P1;PMS_P2;Temp;Humidity;BMP_temperature;BMP_pressure;BME280_temperature;BME280_humidity;BME280_pressure;Samples;Min_cycle;Max_cycle;Signal;HPM_P1;HPM_P2
2022/06/05 00:00:15;;;;;;;31.30;15.20;;;;;;;;;;5092977;28;20515;-70
2022/06/05 00:03:00;;;;;;;23.00;15.40;;;;;;;;;;5073948;28;20055;-69
2022/06/05 00:05:34;;;;;;;15.60;13.98;;;;;;;;;;5074200;28;20416;-71
2022/06/05 00:08:04;;;;;;;29.17;15.13;;;;;;;;;;5057870;28;20397;-70
2022/06/05 00:10:45;;;;;;;23.85;14.80;;;;;;;;;;5092146;28;20484;-70
2022/06/05 00:13:35;;;;;;;28.02;15.55;;;;;;;;;;5057716;28;20425;-69
2022/06/05 00:16:01;;;;;;;25.83;15.13;;;;;;;;;;5084011;28;20040;-71
2022/06/05 00:18:27;;;;;;;25.08;15.50;;;;;;;;;;5091999;28;20040;-71
2022/06/05 00:20:53;;;;;;;27.35;15.07;;;;;;;;;;5074210;28;20593;-70
2022/06/05 00:23:19;;;;;;;24.98;14.77;;;;;;;;;;5092086;28;20044;-70
2022/06/05 00:26:04;;;;;;;22.48;14.30;;;;;;;;;;5091888;28;20139;-70
2022/06/05 00:28:49;;;;;;;19.48;12.93;;;;;;;;;;5090519;28;20055;-70
2022/06/05 00:31:22;;;;;;;22.92;13.70;;;;;;;;;;5073872;28;20089;-70
2022/06/05 00:33:48;;;;;;;29.55;14.57;;;;;;;;;;5091652;28;20048;-70
2022/06/05 00:36:23;;;;;;;24.60;14.25;;;;;;;;;;5092058;28;20070;-70
2022/06/05 00:38:58;;;;;;;22.98;13.57;;;;;;;;;;5091538;28;20051;-71
2022/06/05 00:41:40;;;;;;;27.58;12.95;;;;;;;;;;5091868;28;20067;-69
2022/06/05 00:44:05;;;;;;;25.35;14.07;;;;;;;;;;5091646;28;20483;-70
2022/06/05 00:46:32;;;;;;;18.88;13.52;;;;;;;;;;5091614;28;20122;-71
2022/06/05 00:48:58;;;;;;;25.50;14.57;;;;;;;;;;5088740;28;20126;-69
2022/06/05 00:51:24;;;;;;;19.70;13.25;;;;;;;;;;5089655;28;20426;-70
2022/06/05 00:53:51;;;;;;;27.80;13.80;;;;;;;;;;5089537;28;20036;-71
2022/06/05 00:56:16;;;;;;;20.77;13.82;;;;;;;;;;5089870;28;20448;-71
2022/06/05 00:58:42;;;;;;;20.38;12.70;;;;;;;;;;5089183;28;20043;-70
2022/06/05 01:01:08;;;;;;;19.77;12.65;;;;;;;;;;5089711;28;20051;-69
2022/06/05 01:03:34;;;;;;;24.48;13.20;;;;;;;;;;5089400;28;20063;-70
2022/06/05 01:06:00;;;;;;;16.27;11.35;;;;;;;;;;5054888;28;20043;-70
2022/06/05 01:08:26;;;;;;;16.52;11.82;;;;;;;;;;5089550;28;20415;-70
2022/06/05 01:11:12;;;;;;;17.98;12.32;;;;;;;;;;5089166;28;20572;-70
2022/06/05 01:13:41;;;;;;;22.70;13.65;;;;;;;;;;5078851;28;20109;-71
2022/06/05 01:16:10;;;;;;;20.40;13.57;;;;;;;;;;5071744;28;20439;-69
2022/06/05 01:18:39;;;;;;;31.70;16.52;;;;;;;;;;5088766;28;20090;-70
2022/06/05 01:21:08;;;;;;;24.83;14.75;;;;;;;;;;5054406;28;20039;-70
2022/06/05 01:23:46;;;;;;;18.58;13.80;;;;;;;;;;5089022;28;20047;-71
2022/06/05 01:26:24;;;;;;;16.55;12.73;;;;;;;;;;5089310;28;20402;-70
2022/06/05 01:29:11;;;;;;;21.10;13.10;;;;;;;;;;5070682;28;20390;-71
2022/06/05 01:31:38;;;;;;;18.48;12.93;;;;;;;;;;5070728;28;20079;-71
2022/06/05 01:34:07;;;;;;;22.92;12.30;;;;;;;;;;5070914;28;20051;-70
2022/06/05 01:36:38;;;;;;;13.30;11.90;;;;;;;;;;5088710;28;20621;-71
2022/06/05 01:39:06;;;;;;;23.58;11.73;;;;;;;;;;5088401;28;20043;-71
2022/06/05 01:41:41;;;;;;;15.10;11.45;;;;;;;;;;5088689;28;20039;-68
2022/06/05 01:44:09;;;;;;;16.20;11.43;;;;;;;;;;5070678;28;20075;-70
2022/06/05 01:46:35;;;;;;;19.92;13.00;;;;;;;;;;5088606;28;20478;-71
2022/06/05 01:49:05;;;;;;;15.18;12.93;;;;;;;;;;5070769;28;20402;-70
2022/06/05 01:51:34;;;;;;;21.87;12.17;;;;;;;;;;5070454;28;20508;-70
2022/06/05 01:54:00;;;;;;;16.05;11.60;;;;;;;;;;5070409;28;20047;-71
2022/06/05 01:56:28;;;;;;;27.20;12.18;;;;;;;;;;5088589;28;20040;-71
2022/06/05 01:58:56;;;;;;;20.80;14.00;;;;;;;;;;5070389;28;20595;-72
2022/06/05 02:01:23;;;;;;;17.08;12.00;;;;;;;;;;5054129;28;20452;-71
2022/06/05 02:03:57;;;;;;;21.27;14.85;;;;;;;;;;5070067;28;20056;-70
2022/06/05 02:06:30;;;;;;;18.58;11.60;;;;;;;;;;5070443;28;20040;-70
2022/06/05 02:08:58;;;;;;;16.08;11.68;;;;;;;;;;5070228;28;20040;-71
2022/06/05 02:11:24;;;;;;;20.58;11.73;;;;;;;;;;5088106;28;20063;-71
2022/06/05 02:13:53;;;;;;;14.68;10.90;;;;;;;;;;5069898;28;20051;-71
2022/06/05 02:16:19;;;;;;;15.27;11.45;;;;;;;;;;5070034;28;20036;-70
2022/06/05 02:18:45;;;;;;;13.75;11.95;;;;;;;;;;5087776;28;20047;-71
2022/06/05 02:21:11;;;;;;;17.30;11.35;;;;;;;;;;5086912;28;20036;-70
2022/06/05 02:23:37;;;;;;;12.68;10.98;;;;;;;;;;5069642;28;20040;-70
2022/06/05 02:26:03;;;;;;;16.55;12.40;;;;;;;;;;5088109;28;20040;-70
2022/06/05 02:28:29;;;;;;;17.48;11.68;;;;;;;;;;5087897;28;20044;-70
2022/06/05 02:31:04;;;;;;;14.05;11.20;;;;;;;;;;5069753;28;20131;-70
2022/06/05 02:33:38;;;;;;;16.60;11.30;;;;;;;;;;5087881;28;20500;-71
2022/06/05 02:36:19;;;;;;;11.80;10.52;;;;;;;;;;5087804;28;20131;-70
2022/06/05 02:38:57;;;;;;;15.63;12.10;;;;;;;;;;5087685;28;20044;-69
2022/06/05 02:41:41;;;;;;;16.55;12.13;;;;;;;;;;5088081;28;20068;-71
2022/06/05 02:44:35;;;;;;;21.48;12.55;;;;;;;;;;5087514;28;20534;-71
2022/06/05 02:47:10;;;;;;;21.27;14.38;;;;;;;;;;5085256;28;20032;-69
2022/06/05 02:49:55;;;;;;;19.98;13.02;;;;;;;;;;5087542;28;20539;-70
2022/06/05 02:52:22;;;;;;;19.42;12.75;;;;;;;;;;5068860;28;20039;-70
2022/06/05 02:54:51;;;;;;;19.30;12.77;;;;;;;;;;5087290;28;20527;-70
2022/06/05 02:57:17;;;;;;;15.38;12.57;;;;;;;;;;5087636;28;20044;-70
2022/06/05 02:59:42;;;;;;;14.45;12.52;;;;;;;;;;5087253;28;20138;-70
2022/06/05 03:04:53;;;;;;;17.50;12.10;;;;;;;;;;5068978;28;20089;-70
2022/06/05 03:07:19;;;;;;;23.85;13.13;;;;;;;;;;5087715;28;20036;-71
2022/06/05 03:09:45;;;;;;;20.23;12.98;;;;;;;;;;5087180;28;20044;-70
2022/06/05 03:12:11;;;;;;;20.88;14.10;;;;;;;;;;5087323;28;20044;-70
2022/06/05 03:14:37;;;;;;;24.75;12.85;;;;;;;;;;5069151;28;20032;-70
2022/06/05 03:17:03;;;;;;;15.32;12.35;;;;;;;;;;5087237;28;20048;-70
2022/06/05 03:19:29;;;;;;;20.88;12.50;;;;;;;;;;5087343;28;20043;-70
2022/06/05 03:21:55;;;;;;;20.85;11.55;;;;;;;;;;5087199;28;21037;-70
2022/06/05 03:24:21;;;;;;;17.02;12.95;;;;;;;;;;5087493;28;20126;-71
2022/06/05 03:26:47;;;;;;;17.20;12.32;;;;;;;;;;5087183;28;20124;-70
2022/06/05 03:29:13;;;;;;;23.80;12.85;;;;;;;;;;5087324;28;20376;-71
2022/06/05 03:31:38;;;;;;;17.80;11.77;;;;;;;;;;5069263;28;20357;-72
2022/06/05 03:34:04;;;;;;;22.35;12.27;;;;;;;;;;5087448;28;20474;-71
2022/06/05 03:36:30;;;;;;;24.20;11.43;;;;;;;;;;5087250;28;20058;-71
2022/06/05 03:38:56;;;;;;;18.88;11.77;;;;;;;;;;5087015;28;20071;-71
2022/06/05 03:41:22;;;;;;;24.33;12.65;;;;;;;;;;5069207;28;20579;-70
2022/06/05 03:43:48;;;;;;;20.88;12.75;;;;;;;;;;5087117;28;20135;-70
2022/06/05 03:46:14;;;;;;;16.95;11.75;;;;;;;;;;5087309;28;20049;-72
2022/06/05 03:48:40;;;;;;;25.83;15.00;;;;;;;;;;5086768;28;20040;-69
2022/06/05 03:51:07;;;;;;;15.57;11.45;;;;;;;;;;5087257;28;20085;-69
2022/06/05 03:53:33;;;;;;;24.77;12.07;;;;;;;;;;5069215;28;20397;-70
2022/06/05 03:55:59;;;;;;;17.65;12.02;;;;;;;;;;5086763;28;20040;-69
2022/06/05 03:58:25;;;;;;;17.50;12.07;;;;;;;;;;5087051;28;20109;-70
2022/06/05 04:00:51;;;;;;;18.27;11.32;;;;;;;;;;5086845;28;20039;-70
2022/06/05 04:03:17;;;;;;;16.33;10.82;;;;;;;;;;5071047;28;20135;-70
2022/06/05 04:05:43;;;;;;;16.38;10.70;;;;;;;;;;5090478;28;20046;-70
2022/06/05 04:08:09;;;;;;;16.13;10.80;;;;;;;;;;5090716;28;20101;-69
2022/06/05 04:10:36;;;;;;;18.17;11.73;;;;;;;;;;5090600;28;20052;-70
2022/06/05 04:13:02;;;;;;;19.60;11.27;;;;;;;;;;5090352;28;20167;-71
2022/06/05 04:15:28;;;;;;;12.93;11.52;;;;;;;;;;5072798;28;20036;-70
2022/06/05 04:17:54;;;;;;;17.65;10.57;;;;;;;;;;5056132;28;20059;-69
2022/06/05 04:20:20;;;;;;;14.73;9.90;;;;;;;;;;5091625;28;20028;-71
2022/06/05 04:22:46;;;;;;;19.67;10.40;;;;;;;;;;5091044;28;20043;-70
2022/06/05 04:25:13;;;;;;;19.30;10.40;;;;;;;;;;5090529;28;20044;-71
2022/06/05 04:27:39;;;;;;;12.65;8.95;;;;;;;;;;5090147;28;20067;-71
2022/06/05 04:30:05;;;;;;;18.25;10.05;;;;;;;;;;5090323;28;20526;-71
2022/06/05 04:32:31;;;;;;;14.43;9.25;;;;;;;;;;5090490;28;20479;-70
2022/06/05 04:34:57;;;;;;;15.15;9.48;;;;;;;;;;5071904;28;20036;-71
2022/06/05 04:37:24;;;;;;;14.68;10.30;;;;;;;;;;5072251;28;20060;-70
2022/06/05 04:39:50;;;;;;;20.17;12.32;;;;;;;;;;5089835;28;20047;-70
2022/06/05 04:42:16;;;;;;;16.02;10.45;;;;;;;;;;5090103;28;20044;-70
2022/06/05 04:44:41;;;;;;;14.65;11.98;;;;;;;;;;5089429;28;20448;-69
2022/06/05 04:47:07;;;;;;;16.48;8.98;;;;;;;;;;5089881;28;20043;-70
2022/06/05 04:49:35;;;;;;;12.57;8.52;;;;;;;;;;5089915;28;20522;-70
2022/06/05 04:52:01;;;;;;;20.65;9.73;;;;;;;;;;5071726;28;20044;-70
2022/06/05 04:54:27;;;;;;;14.73;9.73;;;;;;;;;;5071619;28;20035;-69
2022/06/05 04:56:53;;;;;;;15.38;9.50;;;;;;;;;;5089385;28;20058;-70
2022/06/05 04:59:19;;;;;;;16.70;8.70;;;;;;;;;;5089618;28;20040;-71
2022/06/05 05:01:45;;;;;;;12.43;8.43;;;;;;;;;;5089486;28;20054;-71
2022/06/05 05:04:12;;;;;;;6.15;4.38;;;;;;;;;;5089561;28;20485;-70
2022/06/05 05:06:38;;;;;;;9.07;5.28;;;;;;;;;;5071482;28;20036;-72
2022/06/05 05:09:04;;;;;;;8.18;5.75;;;;;;;;;;5089215;28;20040;-71
2022/06/05 05:11:30;;;;;;;7.53;5.60;;;;;;;;;;5089239;28;20059;-72
2022/06/05 05:13:56;;;;;;;6.30;5.38;;;;;;;;;;5088417;28;20538;-70
2022/06/05 05:16:22;;;;;;;6.55;5.35;;;;;;;;;;5089436;28;20032;-70
2022/06/05 05:18:48;;;;;;;8.85;4.80;;;;;;;;;;5087799;28;20071;-70
2022/06/05 05:21:15;;;;;;;6.47;4.90;;;;;;;;;;5089440;28;20075;-72
2022/06/05 05:23:41;;;;;;;5.60;4.85;;;;;;;;;;5088995;28;20044;-71
2022/06/05 05:26:17;;;;;;;8.35;5.40;;;;;;;;;;5089005;28;20131;-71
2022/06/05 05:28:43;;;;;;;7.25;6.45;;;;;;;;;;5070808;28;20044;-72
2022/06/05 05:31:10;;;;;;;15.10;6.55;;;;;;;;;;5089126;28;20044;-70
2022/06/05 05:33:36;;;;;;;7.93;6.40;;;;;;;;;;5088887;28;20136;-70
2022/06/05 05:36:02;;;;;;;21.13;5.70;;;;;;;;;;5088749;28;20059;-69
2022/06/05 05:38:28;;;;;;;6.35;5.72;;;;;;;;;;5088673;28;20047;-71
2022/06/05 05:43:38;;;;;;;7.78;5.43;;;;;;;;;;5088748;28;20044;-71
2022/06/05 05:46:09;;;;;;;4.72;4.32;;;;;;;;;;5088744;28;20043;-70
2022/06/05 05:48:35;;;;;;;8.45;5.75;;;;;;;;;;5088726;28;20114;-71
2022/06/05 05:51:01;;;;;;;7.53;5.53;;;;;;;;;;5070458;28;20059;-71
2022/06/05 05:53:27;;;;;;;8.85;5.25;;;;;;;;;;5088446;28;20036;-70
2022/06/05 05:55:53;;;;;;;5.10;4.65;;;;;;;;;;5088398;28;20518;-71
2022/06/05 05:58:19;;;;;;;5.75;4.40;;;;;;;;;;5070330;28;20520;-69
2022/06/05 06:00:45;;;;;;;5.68;4.70;;;;;;;;;;5088248;28;20047;-72
2022/06/05 06:03:11;;;;;;;8.45;5.20;;;;;;;;;;5088462;28;20058;-71
2022/06/05 06:05:37;;;;;;;5.43;4.53;;;;;;;;;;5070311;28;20220;-71
2022/06/05 06:08:03;;;;;;;7.07;5.15;;;;;;;;;;5088145;28;20131;-71
2022/06/05 06:10:29;;;;;;;9.38;5.28;;;;;;;;;;5087992;28;20393;-72
2022/06/05 06:12:54;;;;;;;7.32;5.35;;;;;;;;;;5087931;28;20051;-71
2022/06/05 06:15:20;;;;;;;3.35;2.42;;;;;;;;;;5088214;28;20035;-70
2022/06/05 06:17:46;;;;;;;8.57;5.40;;;;;;;;;;5087897;28;20408;-72
2022/06/05 06:20:12;;;;;;;6.28;5.78;;;;;;;;;;5088127;28;20032;-70
2022/06/05 06:22:41;;;;;;;8.32;4.70;;;;;;;;;;5070209;28;20040;-71
2022/06/05 06:25:07;;;;;;;5.53;4.45;;;;;;;;;;5087940;28;20043;-71
2022/06/05 06:27:33;;;;;;;5.32;4.43;;;;;;;;;;5088136;28;20040;-69
2022/06/05 06:29:59;;;;;;;6.32;5.78;;;;;;;;;;5087817;28;20040;-70
2022/06/05 06:32:25;;;;;;;7.57;6.97;;;;;;;;;;5088060;28;20465;-69
2022/06/05 06:34:51;;;;;;;11.63;7.28;;;;;;;;;;5087743;28;20586;-69
2022/06/05 06:37:17;;;;;;;16.13;7.20;;;;;;;;;;5070029;28;20103;-70
2022/06/05 06:39:43;;;;;;;11.52;7.00;;;;;;;;;;5087964;28;20075;-70
2022/06/05 06:42:08;;;;;;;11.05;7.10;;;;;;;;;;5087714;28;20058;-71
2022/06/05 06:44:34;;;;;;;12.50;7.53;;;;;;;;;;5087739;28;20587;-69
2022/06/05 06:47:00;;;;;;;7.90;7.10;;;;;;;;;;5087600;28;20420;-70
2022/06/05 06:49:26;;;;;;;10.20;6.65;;;;;;;;;;5087885;28;20032;-70
2022/06/05 06:51:52;;;;;;;8.50;5.80;;;;;;;;;;5069283;28;20047;-71
2022/06/05 06:54:19;;;;;;;6.32;5.70;;;;;;;;;;5087689;28;20065;-72
2022/06/05 06:56:44;;;;;;;6.38;5.60;;;;;;;;;;5087679;28;20303;-72
2022/06/05 06:59:10;;;;;;;9.13;6.40;;;;;;;;;;5069254;28;20230;-71
2022/06/05 07:01:36;;;;;;;6.22;4.60;;;;;;;;;;5087646;28;20364;-72
2022/06/05 07:04:02;;;;;;;5.60;5.10;;;;;;;;;;5069106;28;20711;-70
2022/06/05 07:06:28;;;;;;;5.80;5.00;;;;;;;;;;5087556;28;20048;-70
2022/06/05 07:08:54;;;;;;;5.95;5.45;;;;;;;;;;5069026;28;20044;-70
2022/06/05 07:11:20;;;;;;;7.05;5.15;;;;;;;;;;5069407;28;20059;-71
2022/06/05 07:13:46;;;;;;;8.07;5.05;;;;;;;;;;5069227;28;20057;-70
2022/06/05 07:16:12;;;;;;;5.50;4.95;;;;;;;;;;5087321;28;20046;-71
2022/06/05 07:18:39;;;;;;;7.80;5.25;;;;;;;;;;5087628;28;20097;-72
2022/06/05 07:21:06;;;;;;;6.72;5.35;;;;;;;;;;5069449;28;20104;-71
2022/06/05 07:23:32;;;;;;;9.80;5.68;;;;;;;;;;5087394;28;20043;-70
2022/06/05 07:25:58;;;;;;;9.55;6.45;;;;;;;;;;5069197;28;20064;-72
2022/06/05 07:28:25;;;;;;;7.68;6.93;;;;;;;;;;5069594;28;20456;-71
2022/06/05 07:30:52;;;;;;;7.88;6.22;;;;;;;;;;5087205;28;20499;-70
2022/06/05 07:33:17;;;;;;;5.72;4.93;;;;;;;;;;5052751;28;20464;-71
2022/06/05 07:35:43;;;;;;;4.28;3.85;;;;;;;;;;5087384;28;20127;-71
2022/06/05 07:38:10;;;;;;;3.10;2.90;;;;;;;;;;5088947;28;20127;-71
2022/06/05 07:40:39;;;;;;;4.20;3.90;;;;;;;;;;5072997;28;20551;-71
2022/06/05 07:43:05;;;;;;;3.25;3.05;;;;;;;;;;5056270;28;20515;-70
2022/06/05 07:45:31;;;;;;;4.95;4.63;;;;;;;;;;5091524;28;20097;-70
2022/06/05 07:47:57;;;;;;;5.68;5.25;;;;;;;;;;5072976;28;20039;-71
2022/06/05 07:50:23;;;;;;;4.32;3.92;;;;;;;;;;5091033;28;20040;-71
2022/06/05 07:55:34;;;;;;;4.60;4.20;;;;;;;;;;5091136;28;20071;-72
2022/06/05 07:58:00;;;;;;;5.88;4.32;;;;;;;;;;5090562;28;20143;-71
2022/06/05 08:00:26;;;;;;;5.80;4.15;;;;;;;;;;5090824;28;20078;-70
2022/06/05 08:02:52;;;;;;;8.68;4.82;;;;;;;;;;5072609;28;20068;-71
2022/06/05 08:05:19;;;;;;;4.40;4.07;;;;;;;;;;5090826;28;20039;-71
2022/06/05 08:07:45;;;;;;;9.18;3.97;;;;;;;;;;5090805;28;20126;-70
2022/06/05 08:10:11;;;;;;;7.40;3.83;;;;;;;;;;5072231;28;20515;-71
2022/06/05 08:12:37;;;;;;;3.17;2.97;;;;;;;;;;5090621;28;20063;-72
2022/06/05 08:15:08;;;;;;;3.67;3.38;;;;;;;;;;5090292;28;20037;-70
2022/06/05 08:17:34;;;;;;;3.25;3.05;;;;;;;;;;5090609;28;20592;-71
2022/06/05 08:20:01;;;;;;;3.80;3.50;;;;;;;;;;5072203;28;20292;-71
2022/06/05 08:22:27;;;;;;;3.85;3.55;;;;;;;;;;5090568;28;20640;-71
2022/06/05 08:24:53;;;;;;;5.80;3.70;;;;;;;;;;5090028;28;20040;-72
2022/06/05 08:27:19;;;;;;;4.65;3.30;;;;;;;;;;5090376;28;20516;-71
2022/06/05 08:29:45;;;;;;;3.85;3.60;;;;;;;;;;5090200;28;20036;-72
2022/06/05 08:32:12;;;;;;;3.38;3.17;;;;;;;;;;5072062;28;20109;-71
2022/06/05 08:34:38;;;;;;;3.47;3.17;;;;;;;;;;5055666;28;20123;-71
2022/06/05 08:42:52;;;;;;;3.17;2.70;;;;;;;;;;5072078;28;20044;-71
2022/06/05 08:45:18;;;;;;;3.30;3.10;;;;;;;;;;5089622;28;20685;-72
2022/06/05 08:47:55;;;;;;;2.90;2.70;;;;;;;;;;5088726;28;20043;-70
2022/06/05 08:50:35;;;;;;;2.40;2.30;;;;;;;;;;5070721;28;20624;-71
2022/06/05 08:53:06;;;;;;;3.40;3.20;;;;;;;;;;5071530;28;20098;-71
2022/06/05 08:55:33;;;;;;;4.30;2.47;;;;;;;;;;5089876;28;20031;-69
2022/06/05 08:57:59;;;;;;;2.75;2.55;;;;;;;;;;5089369;28;20052;-71
2022/06/05 09:00:32;;;;;;;5.88;2.70;;;;;;;;;;5089687;28;20036;-71
2022/06/05 09:03:00;;;;;;;2.83;2.63;;;;;;;;;;5071243;28;20527;-72
2022/06/05 09:05:37;;;;;;;2.70;2.50;;;;;;;;;;5071339;28;20047;-72
2022/06/05 09:08:04;;;;;;;2.75;2.58;;;;;;;;;;5089116;28;20040;-71
2022/06/05 09:10:32;;;;;;;2.47;2.28;;;;;;;;;;5071173;28;20094;-72
2022/06/05 09:13:05;;;;;;;2.20;2.10;;;;;;;;;;5089038;28;20131;-71
2022/06/05 09:15:32;;;;;;;2.30;2.13;;;;;;;;;;5071316;28;20310;-71
2022/06/05 09:17:58;;;;;;;2.67;2.50;;;;;;;;;;5088971;28;20043;-72
2022/06/05 09:20:48;;;;;;;2.88;2.67;;;;;;;;;;5071168;28;20620;-71
2022/06/05 09:23:17;;;;;;;3.70;2.10;;;;;;;;;;5075723;28;20036;-72
2022/06/05 09:25:47;;;;;;;1.80;1.70;;;;;;;;;;5089109;28;20411;-71
2022/06/05 09:28:13;;;;;;;;;;;;;;;;;;5071266;28;20144;-71
2022/06/05 09:30:42;;;;;;;2.10;1.90;;;;;;;;;;5089011;28;20427;-72
2022/06/05 09:33:12;;;;;;;1.40;1.40;;;;;;;;;;5070684;28;20040;-71
2022/06/05 09:35:45;;;;;;;1.75;1.73;;;;;;;;;;5071117;28;20032;-71
2022/06/05 09:38:16;;;;;;;1.90;1.80;;;;;;;;;;5088719;28;20060;-71
2022/06/05 09:40:55;;;;;;;1.88;1.77;;;;;;;;;;5070736;28;20546;-72
2022/06/05 09:43:24;;;;;;;1.73;1.60;;;;;;;;;;5088494;28;20051;-73
2022/06/05 09:46:09;;;;;;;2.17;1.90;;;;;;;;;;5070800;28;20637;-72
2022/06/05 09:48:47;;;;;;;2.22;2.13;;;;;;;;;;5088672;28;20055;-71
2022/06/05 09:51:14;;;;;;;2.53;2.38;;;;;;;;;;5070417;28;20044;-71
2022/06/05 09:53:42;;;;;;;3.55;2.13;;;;;;;;;;5088763;28;20123;-73
2022/06/05 09:56:11;;;;;;;2.17;1.85;;;;;;;;;;5070240;28;20040;-72
2022/06/05 09:58:43;;;;;;;1.92;1.83;;;;;;;;;;5088747;28;20054;-71
2022/06/05 10:01:19;;;;;;;1.48;1.45;;;;;;;;;;5087981;28;20135;-71
2022/06/05 10:03:45;;;;;;;1.80;1.70;;;;;;;;;;5088595;28;20512;-72
2022/06/05 10:06:14;;;;;;;6.20;2.10;;;;;;;;;;5087967;28;20048;-72
2022/06/05 10:08:43;;;;;;;3.35;1.95;;;;;;;;;;5088458;28;20043;-72
2022/06/05 10:11:29;;;;;;;1.90;1.80;;;;;;;;;;5070202;28;20063;-72
2022/06/05 10:14:03;;;;;;;2.30;1.67;;;;;;;;;;5088289;28;20413;-71
2022/06/05 10:16:31;;;;;;;2.03;1.80;;;;;;;;;;5070274;28;20508;-71
2022/06/05 10:19:06;;;;;;;6.15;1.88;;;;;;;;;;5088119;28;20135;-70
2022/06/05 10:21:34;;;;;;;2.65;1.80;;;;;;;;;;5053708;28;20035;-71
2022/06/05 10:24:04;;;;;;;2.00;1.90;;;;;;;;;;5053241;28;20396;-71
2022/06/05 10:26:34;;;;;;;3.55;1.88;;;;;;;;;;5088302;28;20031;-71
2022/06/05 10:29:28;;;;;;;2.03;1.92;;;;;;;;;;5070094;28;20040;-71
2022/06/05 10:31:56;;;;;;;1.98;1.80;;;;;;;;;;5067941;28;20101;-70
2022/06/05 10:34:35;;;;;;;1.90;1.75;;;;;;;;;;5069910;28;20570;-72
2022/06/05 10:37:11;;;;;;;7.22;2.17;;;;;;;;;;5069972;28;20503;-70
2022/06/05 10:39:40;;;;;;;1.60;1.50;;;;;;;;;;5070103;28;20036;-70
2022/06/05 10:42:10;;;;;;;3.22;1.45;;;;;;;;;;5069802;28;20047;-72
2022/06/05 10:44:44;;;;;;;1.92;1.30;;;;;;;;;;5087794;28;20032;-72
2022/06/05 10:47:13;;;;;;;1.50;1.50;;;;;;;;;;5087579;28;20054;-72
2022/06/05 10:49:54;;;;;;;2.10;1.52;;;;;;;;;;5068038;28;20285;-71
2022/06/05 10:52:19;;;;;;;;;;;;;;;;;;5044279;28;20044;-71
2022/06/05 10:54:45;;;;;;;1.60;1.60;;;;;;;;;;5065640;28;19912;-72
2022/06/05 10:57:13;;;;;;;2.13;2.03;;;;;;;;;;5031481;28;20067;-72
2022/06/05 10:59:59;;;;;;;2.20;2.10;;;;;;;;;;5063340;28;20044;-72
2022/06/05 11:02:38;;;;;;;2.10;2.00;;;;;;;;;;5064116;28;20045;-71
2022/06/05 11:05:11;;;;;;;2.05;1.80;;;;;;;;;;5027765;28;20039;-70
2022/06/05 11:07:45;;;;;;;2.00;1.90;;;;;;;;;;5048231;28;20044;-70
2022/06/05 11:10:21;;;;;;;1.92;1.80;;;;;;;;;;5065358;28;20483;-71
2022/06/05 11:15:34;;;;;;;1.70;1.65;;;;;;;;;;5054712;28;20044;-70
2022/06/05 11:18:10;;;;;;;1.08;1.08;;;;;;;;;;5069486;28;20087;-73
2022/06/05 11:20:35;;;;;;;1.45;1.45;;;;;;;;;;5066625;28;20101;-72
2022/06/05 11:23:09;;;;;;;5.50;1.70;;;;;;;;;;5068737;28;20131;-72
2022/06/05 11:25:54;;;;;;;1.40;1.40;;;;;;;;;;5035089;28;20048;-72
2022/06/05 11:28:32;;;;;;;2.70;1.48;;;;;;;;;;5066445;28;20621;-73
2022/06/05 11:31:13;;;;;;;1.27;1.00;;;;;;;;;;5068335;28;20037;-72
2022/06/05 11:33:42;;;;;;;1.30;1.30;;;;;;;;;;5050731;28;20044;-72
2022/06/05 11:36:18;;;;;;;2.88;1.30;;;;;;;;;;5069109;28;20492;-72
2022/06/05 11:38:46;;;;;;;3.40;2.67;;;;;;;;;;5052993;28;20052;-71
2022/06/05 11:41:12;;;;;;;2.08;1.98;;;;;;;;;;5050675;28;20047;-73
2022/06/05 11:43:39;;;;;;;2.70;1.80;;;;;;;;;;5069502;28;20089;-72
2022/06/05 11:46:11;;;;;;;2.10;1.90;;;;;;;;;;5050937;28;20032;-73
2022/06/05 11:48:57;;;;;;;1.70;1.60;;;;;;;;;;5067616;28;20387;-72
2022/06/05 11:51:26;;;;;;;1.13;1.13;;;;;;;;;;5039929;28;20609;-70
2022/06/05 11:54:04;;;;;;;2.03;1.33;;;;;;;;;;5065447;28;20051;-74
2022/06/05 11:56:50;;;;;;;2.05;1.52;;;;;;;;;;5050298;28;20076;-70
2022/06/05 12:02:23;;;;;;;1.77;1.67;;;;;;;;;;6000502;23;20993;-72
2022/06/05 12:04:51;;;;;;;1.17;1.17;;;;;;;;;;5030627;28;20057;-71
2022/06/05 12:07:17;;;;;;;2.75;1.85;;;;;;;;;;5029623;28;20187;-71
2022/06/05 12:09:48;;;;;;;1.90;1.80;;;;;;;;;;5030591;28;20060;-71
2022/06/05 12:12:17;;;;;;;2.40;2.20;;;;;;;;;;5028265;28;20517;-72
2022/06/05 12:14:49;;;;;;;1.85;1.75;;;;;;;;;;5022599;28;20185;-70
2022/06/05 12:17:16;;;;;;;1.35;1.30;;;;;;;;;;5012772;28;20054;-72
2022/06/05 12:19:49;;;;;;;3.15;1.90;;;;;;;;;;5011237;28;20417;-71
2022/06/05 12:22:17;;;;;;;1.70;1.35;;;;;;;;;;5012397;28;20046;-72
2022/06/05 12:24:50;;;;;;;2.25;1.80;;;;;;;;;;5012149;28;20667;-72
2022/06/05 12:27:17;;;;;;;1.80;1.70;;;;;;;;;;5012474;28;20124;-72
2022/06/05 12:29:55;;;;;;;1.88;1.80;;;;;;;;;;5014746;28;20525;-72
2022/06/05 12:32:39;;;;;;;3.50;1.95;;;;;;;;;;5020330;28;20338;-72
2022/06/05 12:35:11;;;;;;;1.52;1.42;;;;;;;;;;5012204;28;20049;-71
2022/06/05 12:37:45;;;;;;;2.70;1.95;;;;;;;;;;5016170;28;20425;-71
2022/06/05 12:40:15;;;;;;;1.90;1.80;;;;;;;;;;5011040;28;20120;-71
2022/06/05 12:42:41;;;;;;;;;;;;;;;;;;5031428;28;20428;-71
2022/06/05 12:45:15;;;;;;;3.15;1.90;;;;;;;;;;5014203;28;19913;-70
2022/06/05 12:48:00;;;;;;;1.83;1.80;;;;;;;;;;5013921;28;20579;-71
2022/06/05 12:50:44;;;;;;;2.20;2.05;;;;;;;;;;5031942;28;20421;-70
2022/06/05 12:53:13;;;;;;;1.30;1.30;;;;;;;;;;5031602;28;20048;-70
2022/06/05 12:55:49;;;;;;;2.15;2.00;;;;;;;;;;5009449;28;20050;-71
2022/06/05 12:58:17;;;;;;;2.42;2.22;;;;;;;;;;5008062;28;20069;-71
2022/06/05 13:01:02;;;;;;;4.55;2.08;;;;;;;;;;5010747;28;20468;-72
2022/06/05 13:03:35;;;;;;;2.38;2.20;;;;;;;;;;5011169;28;20588;-70
2022/06/05 13:06:08;;;;;;;2.20;2.10;;;;;;;;;;4994271;28;20050;-72
2022/06/05 13:08:46;;;;;;;1.50;1.50;;;;;;;;;;4994118;28;20105;-71
2022/06/05 13:11:12;;;;;;;3.15;2.28;;;;;;;;;;5011512;28;20053;-71
2022/06/05 13:13:49;;;;;;;2.45;2.30;;;;;;;;;;5011280;28;20049;-71
2022/06/05 13:16:23;;;;;;;2.65;2.45;;;;;;;;;;5011625;28;20033;-73
2022/06/05 13:18:55;;;;;;;2.55;2.35;;;;;;;;;;5011306;28;20061;-71
2022/06/05 13:21:32;;;;;;;4.85;4.47;;;;;;;;;;4961546;28;20420;-72
2022/06/05 13:24:13;;;;;;;3.47;3.20;;;;;;;;;;5011572;28;20085;-71
2022/06/05 13:26:42;;;;;;;2.85;2.60;;;;;;;;;;5011008;28;20036;-69
2022/06/05 13:29:15;;;;;;;4.28;2.50;;;;;;;;;;4977885;28;20062;-71
2022/06/05 13:31:51;;;;;;;6.25;2.25;;;;;;;;;;4977335;28;20040;-71
2022/06/05 13:34:23;;;;;;;3.38;2.50;;;;;;;;;;4993942;28;20053;-71
2022/06/05 13:36:54;;;;;;;3.13;2.55;;;;;;;;;;5010576;28;20053;-71
2022/06/05 13:39:22;;;;;;;;;;;;;;;;;;5013076;28;20077;-71
2022/06/05 13:41:48;;;;;;;2.25;2.15;;;;;;;;;;5011957;28;20381;-70
2022/06/05 13:44:15;;;;;;;4.75;4.13;;;;;;;;;;5011160;28;20536;-71
2022/06/05 13:46:50;;;;;;;2.60;2.40;;;;;;;;;;4993307;28;20041;-73
2022/06/05 13:49:43;;;;;;;2.45;2.28;;;;;;;;;;4993609;28;20053;-71
2022/06/05 13:52:29;;;;;;;2.38;2.28;;;;;;;;;;4973107;28;20045;-71
2022/06/05 13:55:13;;;;;;;4.82;2.33;;;;;;;;;;5010320;28;20054;-70
2022/06/05 13:57:39;;;;;;;2.58;2.38;;;;;;;;;;5010459;28;20049;-71
2022/06/05 14:00:07;;;;;;;2.45;2.25;;;;;;;;;;4993062;28;20041;-71
2022/06/05 14:02:39;;;;;;;2.38;2.20;;;;;;;;;;4993465;28;20057;-71
2022/06/05 14:05:05;;;;;;;2.90;2.47;;;;;;;;;;5010562;28;20052;-72
2022/06/05 14:07:38;;;;;;;4.07;2.58;;;;;;;;;;5010714;28;20049;-71
2022/06/05 14:10:12;;;;;;;2.15;2.05;;;;;;;;;;5010679;28;20153;-69
2022/06/05 14:12:46;;;;;;;4.20;2.70;;;;;;;;;;4992853;28;20049;-71
2022/06/05 14:15:16;;;;;;;4.18;2.47;;;;;;;;;;4992933;28;20050;-71
2022/06/05 14:17:44;;;;;;;2.28;2.17;;;;;;;;;;4976546;28;20057;-71
2022/06/05 14:20:19;;;;;;;2.78;2.58;;;;;;;;;;5010331;28;20045;-71
2022/06/05 14:22:55;;;;;;;4.30;2.53;;;;;;;;;;4992449;28;20555;-71
2022/06/05 14:25:28;;;;;;;3.05;2.38;;;;;;;;;;5010334;28;20046;-71
2022/06/05 14:27:56;;;;;;;2.38;2.28;;;;;;;;;;4992422;28;20138;-70
2022/06/05 14:30:23;;;;;;;2.70;2.35;;;;;;;;;;5010053;28;20041;-71
2022/06/05 14:32:49;;;;;;;4.70;2.75;;;;;;;;;;4992332;28;20046;-70
2022/06/05 14:35:15;;;;;;;4.68;2.97;;;;;;;;;;4992824;28;20125;-70
2022/06/05 14:37:42;;;;;;;5.88;2.92;;;;;;;;;;5009734;28;20477;-72
2022/06/05 14:40:11;;;;;;;6.43;4.15;;;;;;;;;;4992503;28;20187;-71
2022/06/05 14:42:48;;;;;;;9.15;3.67;;;;;;;;;;4976549;28;20048;-71
2022/06/05 14:45:17;;;;;;;6.50;3.45;;;;;;;;;;5010556;28;20038;-71
2022/06/05 14:47:46;;;;;;;5.97;3.97;;;;;;;;;;4991424;28;20045;-71
2022/06/05 14:50:14;;;;;;;5.93;2.83;;;;;;;;;;4992657;28;20089;-70
2022/06/05 14:52:44;;;;;;;3.33;3.00;;;;;;;;;;4992348;28;20037;-71
2022/06/05 14:58:09;;;;;;;4.57;3.00;;;;;;;;;;4994877;28;20057;-71
2022/06/05 15:00:40;;;;;;;4.78;3.20;;;;;;;;;;5009953;28;20046;-71
2022/06/05 15:03:06;;;;;;;4.70;3.90;;;;;;;;;;5009526;28;20069;-70
2022/06/05 15:05:33;;;;;;;3.25;2.90;;;;;;;;;;5009932;28;20198;-71
2022/06/05 15:08:02;;;;;;;5.90;3.60;;;;;;;;;;4975741;28;20046;-71
2022/06/05 15:10:31;;;;;;;4.82;3.00;;;;;;;;;;4992212;28;20042;-71
2022/06/05 15:13:02;;;;;;;5.88;3.60;;;;;;;;;;5009367;28;20045;-70